createdAt,value
2023-04-17T00:01:49.001Z,21.62
2023-04-17T00:03:52.549Z,21.63
2023-04-17T00:05:54.130Z,21.61
2023-04-17T00:07:55.490Z,21.62
2023-04-17T00:09:56.950Z,21.61
2023-04-17T00:11:58.303Z,21.54
2023-04-17T00:13:59.606Z,21.52
2023-04-17T00:16:01.108Z,21.50
2023-04-17T00:18:02.556Z,21.51
2023-04-17T00:20:13.419Z,21.48
2023-04-17T00:22:14.752Z,21.46
2023-04-17T00:24:16.038Z,21.43
2023-04-17T00:26:17.334Z,21.42
2023-04-17T00:28:18.936Z,21.39
2023-04-17T00:30:20.277Z,21.40
2023-04-17T00:32:21.577Z,21.43
2023-04-17T00:34:22.922Z,21.45
2023-04-17T00:36:24.289Z,21.46
2023-04-17T00:38:26.127Z,21.44
2023-04-17T00:40:27.481Z,21.44
2023-04-17T00:42:28.801Z,21.41
2023-04-17T00:44:30.294Z,21.50
2023-04-17T00:46:31.893Z,21.53
2023-04-17T00:48:33.192Z,21.53
2023-04-17T00:50:34.528Z,21.54
2023-04-17T00:52:35.915Z,21.57
2023-04-17T00:54:37.236Z,21.58
2023-04-17T00:56:38.560Z,21.58
2023-04-17T00:58:39.981Z,21.58
2023-04-17T01:00:41.309Z,21.63
2023-04-17T01:02:42.713Z,21.63
2023-04-17T01:04:44.100Z,21.65
2023-04-17T01:06:45.486Z,21.63
2023-04-17T01:08:46.804Z,21.64
2023-04-17T01:10:48.111Z,21.66
2023-04-17T01:12:49.431Z,21.64
2023-04-17T01:14:51.278Z,21.65
2023-04-17T01:16:52.969Z,21.64
2023-04-17T01:18:54.364Z,21.66
2023-04-17T01:20:55.832Z,21.67
2023-04-17T01:22:57.126Z,21.67
2023-04-17T01:24:58.782Z,21.65
2023-04-17T01:27:00.081Z,21.60
2023-04-17T01:29:02.240Z,21.58
2023-04-17T01:31:03.607Z,21.58
2023-04-17T01:33:05.015Z,21.58
2023-04-17T01:35:06.381Z,21.57
2023-04-17T01:37:07.727Z,21.54
2023-04-17T01:39:09.073Z,21.54
2023-04-17T01:41:10.577Z,21.55
2023-04-17T01:43:11.889Z,21.52
2023-04-17T01:45:13.265Z,21.51
2023-04-17T01:47:14.659Z,21.51
2023-04-17T01:49:15.959Z,21.53
2023-04-17T01:51:17.255Z,21.53
2023-04-17T01:53:19.470Z,21.52
2023-04-17T01:55:20.760Z,21.53
2023-04-17T01:57:22.135Z,21.54
2023-04-17T01:59:23.438Z,21.53
2023-04-17T02:01:24.804Z,21.57
2023-04-17T02:03:26.384Z,21.55
2023-04-17T02:05:27.921Z,21.62
2023-04-17T02:07:29.215Z,21.65
2023-04-17T02:09:30.753Z,21.66
2023-04-17T02:11:32.105Z,21.66
2023-04-17T02:13:33.458Z,21.64
2023-04-17T02:15:36.053Z,21.67
2023-04-17T02:17:37.459Z,21.68
2023-04-17T02:19:38.892Z,21.70
2023-04-17T02:21:40.189Z,21.76
2023-04-17T02:23:41.570Z,21.81
2023-04-17T02:25:42.892Z,21.83
2023-04-17T02:27:44.184Z,21.77
2023-04-17T02:29:45.570Z,21.77
2023-04-17T02:31:47.018Z,21.77
2023-04-17T02:33:48.457Z,21.78
2023-04-17T02:35:49.808Z,21.75
2023-04-17T02:37:51.947Z,21.75
2023-04-17T02:39:53.523Z,21.74
2023-04-17T02:41:54.831Z,21.90
2023-04-17T02:43:56.719Z,21.74
2023-04-17T02:45:58.044Z,21.55
2023-04-17T02:47:59.454Z,21.40
2023-04-17T02:50:00.811Z,21.29
2023-04-17T02:52:02.105Z,21.34
2023-04-17T02:54:03.551Z,21.27
2023-04-17T02:56:04.904Z,21.17
2023-04-17T02:58:06.322Z,21.18
2023-04-17T03:00:14.901Z,21.18
2023-04-17T03:02:16.703Z,21.18
2023-04-17T03:04:18.121Z,21.17
2023-04-17T03:06:19.543Z,21.06
2023-04-17T03:08:20.870Z,21.04
2023-04-17T03:10:22.176Z,21.06
2023-04-17T03:12:23.516Z,21.07
2023-04-17T03:14:24.948Z,21.08
2023-04-17T03:16:26.281Z,21.09
2023-04-17T03:18:27.683Z,21.10
2023-04-17T03:20:29.012Z,21.11
2023-04-17T03:22:30.312Z,21.15
2023-04-17T03:24:31.721Z,21.19
2023-04-17T03:26:33.095Z,21.24
2023-04-17T03:28:34.440Z,21.27
2023-04-17T03:30:35.916Z,21.32
2023-04-17T03:32:38.118Z,21.35
2023-04-17T03:34:39.563Z,19.97
2023-04-17T03:36:40.869Z,21.40
2023-04-17T03:38:42.164Z,21.40
2023-04-17T03:40:43.508Z,21.42
2023-04-17T03:42:44.813Z,21.42
2023-04-17T03:44:46.684Z,21.42
2023-04-17T03:46:47.985Z,21.42
2023-04-17T03:48:49.316Z,21.40
2023-04-17T03:50:51.602Z,21.38
2023-04-17T03:52:52.918Z,21.36
2023-04-17T03:54:54.220Z,21.34
2023-04-17T03:56:56.035Z,21.33
2023-04-17T03:58:57.342Z,21.31
2023-04-17T04:00:59.028Z,21.29
2023-04-17T04:03:00.582Z,21.24
2023-04-17T04:05:02.023Z,21.18
2023-04-17T04:07:03.839Z,21.13
2023-04-17T04:09:05.499Z,21.09
2023-04-17T04:11:06.786Z,21.03
2023-04-17T04:13:08.116Z,20.98
2023-04-17T04:15:09.417Z,20.94
2023-04-17T04:17:10.732Z,20.90
2023-04-17T04:19:12.741Z,20.87
2023-04-17T04:21:14.206Z,20.86
2023-04-17T04:23:16.829Z,20.84
2023-04-17T04:25:18.293Z,20.83
2023-04-17T04:27:22.708Z,20.84
2023-04-17T04:29:25.630Z,20.86
2023-04-17T04:31:29.748Z,20.87
2023-04-17T04:33:31.250Z,20.86
2023-04-17T04:35:32.589Z,20.89
2023-04-17T04:37:33.893Z,20.90
2023-04-17T04:39:37.898Z,20.93
2023-04-17T04:41:39.347Z,20.95
2023-04-17T04:43:40.684Z,20.99
2023-04-17T04:45:41.985Z,21.02
2023-04-17T04:47:43.397Z,21.06
2023-04-17T04:49:44.755Z,21.10
2023-04-17T04:51:46.044Z,21.15
2023-04-17T04:53:47.438Z,21.18
2023-04-17T04:55:48.788Z,21.23
2023-04-17T04:57:53.349Z,21.24
2023-04-17T04:59:54.679Z,21.29
2023-04-17T05:01:56.118Z,21.32
2023-04-17T05:03:57.788Z,21.33
2023-04-17T05:05:59.358Z,21.34
2023-04-17T05:08:00.678Z,21.36
2023-04-17T05:10:01.972Z,21.36
2023-04-17T05:12:03.313Z,21.35
2023-04-17T05:14:04.660Z,21.36
2023-04-17T05:16:06.400Z,21.34
2023-04-17T05:18:07.772Z,21.32
2023-04-17T05:20:12.337Z,21.28
2023-04-17T05:22:13.736Z,21.27
2023-04-17T05:24:15.034Z,21.24
2023-04-17T05:26:16.460Z,21.22
2023-04-17T05:28:17.761Z,21.18
2023-04-17T05:30:19.073Z,21.16
2023-04-17T05:32:20.481Z,21.13
2023-04-17T05:34:21.847Z,21.08
2023-04-17T05:36:23.148Z,21.05
2023-04-17T05:38:24.452Z,21.03
2023-04-17T05:40:25.855Z,21.01
2023-04-17T05:42:27.227Z,20.98
2023-04-17T05:44:28.519Z,20.95
2023-04-17T05:46:29.881Z,20.90
2023-04-17T05:48:31.356Z,20.89
2023-04-17T05:50:32.721Z,20.85
2023-04-17T05:52:34.080Z,20.82
2023-04-17T05:54:35.400Z,20.83
2023-04-17T05:56:36.773Z,20.82
2023-04-17T05:58:38.471Z,20.83
2023-04-17T06:00:39.819Z,20.84
2023-04-17T06:02:43.145Z,20.87
2023-04-17T06:04:44.911Z,20.87
2023-04-17T06:06:46.624Z,20.89
2023-04-17T06:08:47.969Z,20.91
2023-04-17T06:10:50.741Z,20.93
2023-04-17T06:12:52.269Z,20.98
2023-04-17T06:14:53.611Z,21.01
2023-04-17T06:16:55.025Z,21.03
2023-04-17T06:18:56.459Z,21.07
2023-04-17T06:20:57.826Z,21.11
2023-04-17T06:22:59.115Z,21.17
2023-04-17T06:25:00.444Z,21.21
2023-04-17T06:27:02.177Z,21.23
2023-04-17T06:29:03.765Z,21.25
2023-04-17T06:31:05.131Z,21.29
2023-04-17T06:33:06.674Z,21.30
2023-04-17T06:35:08.089Z,21.31
2023-04-17T06:37:09.433Z,21.33
2023-04-17T06:39:10.959Z,21.33
2023-04-17T06:41:12.471Z,21.30
2023-04-17T06:43:13.786Z,21.27
2023-04-17T06:45:15.084Z,21.27
2023-04-17T06:47:16.395Z,21.23
2023-04-17T06:49:17.700Z,21.21
2023-04-17T06:51:23.539Z,20.42
2023-04-17T06:53:24.915Z,21.18
2023-04-17T06:55:26.272Z,21.14
2023-04-17T06:57:27.581Z,21.13
2023-04-17T06:59:28.876Z,21.11
2023-04-17T07:01:31.492Z,21.08
2023-04-17T07:03:33.109Z,21.06
2023-04-17T07:05:34.899Z,21.03
2023-04-17T07:07:36.514Z,21.00
2023-04-17T07:09:37.841Z,20.96
2023-04-17T07:11:39.171Z,20.95
2023-04-17T07:13:40.470Z,20.95
2023-04-17T07:15:41.925Z,20.95
2023-04-17T07:17:43.389Z,20.92
2023-04-17T07:19:44.746Z,20.91
2023-04-17T07:21:46.346Z,20.89
2023-04-17T07:23:47.643Z,20.88
2023-04-17T07:25:48.958Z,20.87
2023-04-17T07:27:50.272Z,20.88
2023-04-17T07:29:54.792Z,20.88
2023-04-17T07:31:56.232Z,20.90
2023-04-17T07:34:00.805Z,20.90
2023-04-17T07:36:02.266Z,20.92
2023-04-17T07:38:04.351Z,20.94
2023-04-17T07:40:10.821Z,20.96
2023-04-17T07:42:12.148Z,21.01
2023-04-17T07:44:13.547Z,21.04
2023-04-17T07:46:14.969Z,21.08
2023-04-17T07:48:16.351Z,21.10
2023-04-17T07:50:17.700Z,21.15
2023-04-17T07:52:19.060Z,21.16
2023-04-17T07:54:20.462Z,21.19
2023-04-17T07:56:21.828Z,21.23
2023-04-17T07:58:24.124Z,21.27
2023-04-17T08:00:25.566Z,21.28
2023-04-17T08:02:27.041Z,21.30
2023-04-17T08:04:28.700Z,21.30
2023-04-17T08:06:30.535Z,21.28
2023-04-17T08:08:31.831Z,21.28
2023-04-17T08:10:33.132Z,21.25
2023-04-17T08:12:34.443Z,21.21
2023-04-17T08:14:36.290Z,21.17
2023-04-17T08:16:37.655Z,21.11
2023-04-17T08:18:39.443Z,21.08
2023-04-17T08:20:40.744Z,21.03
2023-04-17T08:22:42.744Z,21.01
2023-04-17T08:24:44.157Z,20.98
2023-04-17T08:26:45.630Z,20.95
2023-04-17T08:28:47.101Z,20.92
2023-04-17T08:30:48.448Z,20.90
2023-04-17T08:32:50.830Z,20.88
2023-04-17T08:34:52.682Z,20.86
2023-04-17T08:36:53.993Z,19.56
2023-04-17T08:38:55.343Z,20.83
2023-04-17T08:40:56.676Z,20.83
2023-04-17T08:42:57.974Z,20.83
2023-04-17T08:44:59.271Z,20.83
2023-04-17T08:47:00.896Z,20.83
2023-04-17T08:49:02.780Z,20.84
2023-04-17T08:51:04.103Z,20.84
2023-04-17T08:53:05.442Z,20.84
2023-04-17T08:55:06.782Z,20.86
2023-04-17T08:57:08.120Z,20.88
2023-04-17T08:59:09.581Z,20.89
2023-04-17T09:01:11.241Z,20.90
2023-04-17T09:03:12.807Z,20.93
2023-04-17T09:05:14.290Z,20.95
2023-04-17T09:07:16.621Z,20.97
2023-04-17T09:09:18.000Z,20.96
2023-04-17T09:11:19.335Z,20.98
2023-04-17T09:13:20.686Z,20.98
2023-04-17T09:15:22.023Z,20.95
2023-04-17T09:17:23.354Z,20.92
2023-04-17T09:19:24.643Z,20.89
2023-04-17T09:21:26.146Z,20.84
2023-04-17T09:23:27.735Z,20.83
2023-04-17T09:25:29.185Z,20.82
2023-04-17T09:27:30.591Z,20.84
2023-04-17T09:29:31.941Z,20.85
2023-04-17T09:31:37.993Z,20.86
2023-04-17T09:33:39.477Z,20.89
2023-04-17T09:35:41.038Z,20.91
2023-04-17T09:37:42.784Z,20.94
2023-04-17T09:39:44.159Z,20.93
2023-04-17T09:41:45.513Z,20.94
2023-04-17T09:43:47.181Z,20.96
2023-04-17T09:45:48.827Z,20.97
2023-04-17T09:47:50.201Z,20.98
2023-04-17T09:49:55.740Z,21.00
2023-04-17T09:51:57.059Z,21.00
2023-04-17T09:53:58.928Z,21.01
2023-04-17T09:56:02.144Z,21.01
2023-04-17T09:58:03.617Z,21.00
2023-04-17T10:00:06.633Z,21.01
2023-04-17T10:02:08.298Z,21.01
2023-04-17T10:04:09.827Z,21.00
2023-04-17T10:06:11.375Z,20.99
2023-04-17T10:08:12.735Z,20.98
2023-04-17T10:10:14.120Z,20.98
2023-04-17T10:12:15.462Z,20.28
2023-04-17T10:14:16.814Z,20.95
2023-04-17T10:16:18.159Z,20.94
2023-04-17T10:18:19.832Z,20.93
2023-04-17T10:20:22.477Z,20.92
2023-04-17T10:22:24.916Z,20.92
2023-04-17T10:24:26.251Z,20.90
2023-04-17T10:26:30.767Z,20.89
2023-04-17T10:28:32.211Z,20.86
2023-04-17T10:30:36.303Z,20.86
2023-04-17T10:32:37.687Z,20.85
2023-04-17T10:34:40.445Z,20.86
2023-04-17T10:36:43.148Z,20.85
2023-04-17T10:38:44.490Z,20.85
2023-04-17T10:40:46.063Z,20.85
2023-04-17T10:42:47.360Z,20.84
2023-04-17T10:44:48.812Z,20.82
2023-04-17T10:46:50.114Z,20.81
2023-04-17T10:48:52.590Z,20.81
2023-04-17T10:50:54.452Z,20.81
2023-04-17T10:52:56.385Z,20.82
2023-04-17T10:54:57.717Z,20.83
2023-04-17T10:56:59.185Z,20.84
2023-04-17T10:59:00.739Z,20.86
2023-04-17T11:01:02.338Z,20.86
2023-04-17T11:03:03.867Z,20.87
2023-04-17T11:05:05.290Z,20.88
2023-04-17T11:07:07.308Z,20.88
2023-04-17T11:09:08.611Z,20.86
2023-04-17T11:11:11.876Z,20.83
2023-04-17T11:13:16.630Z,20.82
2023-04-17T11:15:17.990Z,20.81
2023-04-17T11:17:19.289Z,20.82
2023-04-17T11:19:21.534Z,20.84
2023-04-17T11:21:22.890Z,20.86
2023-04-17T11:23:24.189Z,20.91
2023-04-17T11:25:25.583Z,20.92
2023-04-17T11:27:26.903Z,20.94
2023-04-17T11:29:28.258Z,20.94
2023-04-17T11:31:29.695Z,20.95
2023-04-17T11:33:31.068Z,20.95
2023-04-17T11:35:32.420Z,20.92
2023-04-17T11:37:33.713Z,20.89
2023-04-17T11:39:35.044Z,20.86
2023-04-17T11:41:36.622Z,20.83
2023-04-17T11:43:37.915Z,20.85
2023-04-17T11:45:39.247Z,20.85
2023-04-17T11:47:40.756Z,20.87
2023-04-17T11:49:42.063Z,20.90
2023-04-17T11:51:43.404Z,20.89
2023-04-17T11:53:44.703Z,20.93
2023-04-17T11:55:46.173Z,20.94
2023-04-17T11:57:47.521Z,20.95
2023-04-17T11:59:48.869Z,20.98
2023-04-17T12:01:50.240Z,20.98
2023-04-17T12:03:51.963Z,20.98
2023-04-17T12:05:53.413Z,20.99
2023-04-17T12:07:57.749Z,20.98
2023-04-17T12:09:59.057Z,21.00
2023-04-17T12:12:02.188Z,21.02
2023-04-17T12:14:05.133Z,21.03
2023-04-17T12:16:06.535Z,21.02
2023-04-17T12:18:09.298Z,21.02
2023-04-17T12:20:10.820Z,21.03
2023-04-17T12:22:12.171Z,21.02
2023-04-17T12:24:14.178Z,21.03
2023-04-17T12:26:15.692Z,21.68
2023-04-17T12:28:17.080Z,22.15
2023-04-17T12:30:18.384Z,22.67
2023-04-17T12:32:19.814Z,22.71
2023-04-17T12:34:21.766Z,22.83
2023-04-17T12:36:23.108Z,22.72
2023-04-17T12:38:24.547Z,22.96
2023-04-17T12:40:26.027Z,22.94
2023-04-17T12:42:29.570Z,23.03
2023-04-17T12:44:32.762Z,22.78
2023-04-17T12:46:34.059Z,23.10
2023-04-17T12:48:35.462Z,21.69
2023-04-17T12:50:43.654Z,23.23
2023-04-17T12:52:45.054Z,23.28
2023-04-17T12:54:46.379Z,22.83
2023-04-17T12:56:47.688Z,22.65
2023-04-17T12:58:51.736Z,22.47
2023-04-17T13:00:53.101Z,22.22
2023-04-17T13:02:54.544Z,21.89
2023-04-17T13:04:56.451Z,21.64
2023-04-17T13:06:57.851Z,21.50
2023-04-17T13:08:59.151Z,21.40
2023-04-17T13:11:03.729Z,21.34
2023-04-17T13:13:05.087Z,21.30
2023-04-17T13:15:06.406Z,21.25
2023-04-17T13:17:07.832Z,21.24
2023-04-17T13:19:09.253Z,21.20
2023-04-17T13:21:10.603Z,21.19
2023-04-17T13:23:12.000Z,21.17
2023-04-17T13:25:13.319Z,21.17
2023-04-17T13:27:14.657Z,21.17
2023-04-17T13:29:18.517Z,21.19
2023-04-17T13:31:20.812Z,21.21
2023-04-17T13:33:22.192Z,21.25
2023-04-17T13:35:23.546Z,21.28
2023-04-17T13:37:25.686Z,21.31
2023-04-17T13:39:27.197Z,21.37
2023-04-17T13:41:28.542Z,21.51
2023-04-17T13:43:29.849Z,21.64
2023-04-17T13:45:31.205Z,21.73
2023-04-17T13:47:32.556Z,21.80
2023-04-17T13:49:33.883Z,21.86
2023-04-17T13:51:35.189Z,21.90
2023-04-17T13:53:36.515Z,21.93
2023-04-17T13:55:37.809Z,21.96
2023-04-17T13:57:39.160Z,21.99
2023-04-17T13:59:40.555Z,22.00
2023-04-17T14:01:42.432Z,21.99
2023-04-17T14:03:45.911Z,21.98
2023-04-17T14:05:47.430Z,21.96
2023-04-17T14:07:48.743Z,21.94
2023-04-17T14:09:50.048Z,21.91
2023-04-17T14:11:54.270Z,21.86
2023-04-17T14:13:55.621Z,21.81
2023-04-17T14:15:59.698Z,21.77
2023-04-17T14:18:01.385Z,21.75
2023-04-17T14:20:02.869Z,21.72
2023-04-17T14:22:04.291Z,21.67
2023-04-17T14:24:06.150Z,21.59
2023-04-17T14:26:07.742Z,21.53
2023-04-17T14:28:09.044Z,21.55
2023-04-17T14:30:10.347Z,22.14
2023-04-17T14:32:11.701Z,22.63
2023-04-17T14:34:12.991Z,22.71
2023-04-17T14:36:14.288Z,23.17
2023-04-17T14:38:15.618Z,22.87
2023-04-17T14:40:16.931Z,22.92
2023-04-17T14:42:18.326Z,22.66
2023-04-17T14:44:19.619Z,22.55
2023-04-17T14:46:20.955Z,22.57
2023-04-17T14:48:23.676Z,22.65
2023-04-17T14:50:24.983Z,22.67
2023-04-17T14:52:26.850Z,22.76
2023-04-17T14:54:28.312Z,22.70
2023-04-17T14:56:29.655Z,22.77
2023-04-17T14:58:31.115Z,22.74
2023-04-17T15:00:32.456Z,22.79
2023-04-17T15:02:38.621Z,22.79
2023-04-17T15:04:42.328Z,22.86
2023-04-17T15:06:43.720Z,22.86
2023-04-17T15:08:46.202Z,22.90
2023-04-17T15:10:51.548Z,22.83
2023-04-17T15:12:53.227Z,22.67
2023-04-17T15:14:56.354Z,22.58
2023-04-17T15:16:59.044Z,22.55
2023-04-17T15:19:00.482Z,22.55
2023-04-17T15:21:01.836Z,22.58
2023-04-17T15:23:03.288Z,22.62
2023-04-17T15:25:04.620Z,22.64
2023-04-17T15:27:05.965Z,22.62
2023-04-17T15:29:07.294Z,22.65
2023-04-17T15:31:08.717Z,22.62
2023-04-17T15:33:19.284Z,22.62
2023-04-17T15:35:20.618Z,22.63
2023-04-17T15:37:21.964Z,22.64
2023-04-17T15:39:23.477Z,22.61
2023-04-17T15:41:27.748Z,22.56
2023-04-17T15:43:29.043Z,22.55
2023-04-17T15:45:30.330Z,22.52
2023-04-17T15:47:31.708Z,22.51
2023-04-17T15:49:33.163Z,22.51
2023-04-17T15:51:34.464Z,22.46
2023-04-17T15:53:35.948Z,22.08
2023-04-17T15:55:38.542Z,22.13
2023-04-17T15:57:42.392Z,23.03
2023-04-17T15:59:44.244Z,23.56
2023-04-17T16:01:45.625Z,23.55
2023-04-17T16:03:47.860Z,22.99
2023-04-17T16:05:49.295Z,22.78
2023-04-17T16:07:50.621Z,22.01
2023-04-17T16:09:52.062Z,22.46
2023-04-17T16:11:53.388Z,22.56
2023-04-17T16:13:54.746Z,22.59
2023-04-17T16:15:58.871Z,22.64
2023-04-17T16:18:00.337Z,22.66
2023-04-17T16:20:02.288Z,22.68
2023-04-17T16:22:03.677Z,22.74
2023-04-17T16:24:05.223Z,22.94
2023-04-17T16:26:06.558Z,22.81
2023-04-17T16:28:07.863Z,22.73
2023-04-17T16:30:09.177Z,22.77
2023-04-17T16:32:12.082Z,23.05
2023-04-17T16:34:14.371Z,23.62
2023-04-17T16:36:15.719Z,23.39
2023-04-17T16:38:19.797Z,23.02
2023-04-17T16:40:21.086Z,22.95
2023-04-17T16:42:22.554Z,22.91
2023-04-17T16:44:23.853Z,22.90
2023-04-17T16:46:35.447Z,23.23
2023-04-17T16:48:46.987Z,22.98
2023-04-17T16:50:51.359Z,22.87
2023-04-17T16:52:52.666Z,22.77
2023-04-17T16:54:53.955Z,22.53
2023-04-17T16:56:55.889Z,22.45
2023-04-17T16:58:57.212Z,22.52
2023-04-17T17:00:58.603Z,22.45
2023-04-17T17:02:59.995Z,22.18
2023-04-17T17:05:02.197Z,22.34
2023-04-17T17:07:06.177Z,22.52
2023-04-17T17:09:07.484Z,22.81
2023-04-17T17:11:08.779Z,22.65
2023-04-17T17:13:10.119Z,22.60
2023-04-17T17:15:11.438Z,22.57
2023-04-17T17:17:16.412Z,22.56
2023-04-17T17:19:17.831Z,21.87
2023-04-17T17:21:19.137Z,22.58
2023-04-17T17:23:20.476Z,22.58
2023-04-17T17:25:23.000Z,22.59
2023-04-17T17:27:24.304Z,22.62
2023-04-17T17:29:25.605Z,22.60
2023-04-17T17:31:26.945Z,22.60
2023-04-17T17:33:28.321Z,22.65
2023-04-17T17:35:29.615Z,22.68
2023-04-17T17:37:33.777Z,22.66
2023-04-17T17:39:35.463Z,22.72
2023-04-17T17:41:36.763Z,22.75
2023-04-17T17:43:38.051Z,22.79
2023-04-17T17:45:39.516Z,22.79
2023-04-17T17:47:40.912Z,22.79
2023-04-17T17:49:42.206Z,22.83
2023-04-17T17:51:44.533Z,22.65
2023-04-17T17:53:45.986Z,22.33
2023-04-17T17:55:47.271Z,22.48
2023-04-17T17:57:49.623Z,22.64
2023-04-17T17:59:51.262Z,22.73
2023-04-17T18:01:52.852Z,22.93
2023-04-17T18:03:54.461Z,22.89
2023-04-17T18:05:55.909Z,22.88
2023-04-17T18:07:57.314Z,22.87
2023-04-17T18:10:01.812Z,22.84
2023-04-17T18:12:03.915Z,22.83
2023-04-17T18:14:05.217Z,22.79
2023-04-17T18:16:06.525Z,23.02
2023-04-17T18:18:08.038Z,22.94
2023-04-17T18:20:09.456Z,22.85
2023-04-17T18:22:16.770Z,22.81
2023-04-17T18:24:18.620Z,21.95
2023-04-17T18:26:22.687Z,22.78
2023-04-17T18:28:23.986Z,22.74
2023-04-17T18:30:25.536Z,22.77
2023-04-17T18:32:26.922Z,22.75
2023-04-17T18:34:28.237Z,22.74
2023-04-17T18:36:29.945Z,22.56
2023-04-17T18:38:31.269Z,22.26
2023-04-17T18:40:32.616Z,22.05
2023-04-17T18:42:33.945Z,21.95
2023-04-17T18:44:35.259Z,21.88
2023-04-17T18:46:39.243Z,21.84
2023-04-17T18:48:40.554Z,21.79
2023-04-17T18:50:44.618Z,21.78
2023-04-17T18:52:51.682Z,21.98
2023-04-17T18:54:52.999Z,22.33
2023-04-17T18:56:54.347Z,22.54
2023-04-17T18:58:55.641Z,22.72
2023-04-17T19:00:56.999Z,22.94
2023-04-17T19:02:58.369Z,22.98
2023-04-17T19:04:59.741Z,23.15
2023-04-17T19:07:02.757Z,23.31
2023-04-17T19:09:04.265Z,23.13
2023-04-17T19:11:05.873Z,23.16
2023-04-17T19:13:09.877Z,23.27
2023-04-17T19:15:11.304Z,22.80
2023-04-17T19:17:12.748Z,22.66
2023-04-17T19:19:15.472Z,22.72
2023-04-17T19:21:17.128Z,22.79
2023-04-17T19:23:18.414Z,22.87
2023-04-17T19:25:22.700Z,22.91
2023-04-17T19:27:27.298Z,22.95
2023-04-17T19:29:28.785Z,23.03
2023-04-17T19:31:32.826Z,23.19
2023-04-17T19:33:34.434Z,23.45
2023-04-17T19:35:35.781Z,23.55
2023-04-17T19:37:37.105Z,23.61
2023-04-17T19:39:38.458Z,23.51
2023-04-17T19:41:42.789Z,23.27
2023-04-17T19:43:44.176Z,23.07
2023-04-17T19:45:48.609Z,22.98
2023-04-17T19:47:54.875Z,22.90
2023-04-17T19:49:56.403Z,22.88
2023-04-17T19:51:57.760Z,22.82
2023-04-17T19:54:02.129Z,22.81
2023-04-17T19:56:03.469Z,22.68
2023-04-17T19:58:04.773Z,22.34
2023-04-17T20:00:06.107Z,22.55
2023-04-17T20:02:07.513Z,22.58
2023-04-17T20:04:09.156Z,22.63
2023-04-17T20:06:10.685Z,22.66
2023-04-17T20:08:12.094Z,22.74
2023-04-17T20:10:13.431Z,22.94
2023-04-17T20:12:17.763Z,22.77
2023-04-17T20:14:19.633Z,22.66
2023-04-17T20:16:21.068Z,22.62
2023-04-17T20:18:22.476Z,22.67
2023-04-17T20:20:23.827Z,22.66
2023-04-17T20:22:25.740Z,22.63
2023-04-17T20:24:27.043Z,22.65
2023-04-17T20:26:31.227Z,22.76
2023-04-17T20:28:32.547Z,22.75
2023-04-17T20:30:33.865Z,22.64
2023-04-17T20:32:35.221Z,22.69
2023-04-17T20:34:36.602Z,22.71
2023-04-17T20:36:37.934Z,22.73
2023-04-17T20:38:39.322Z,22.87
2023-04-17T20:40:40.650Z,22.88
2023-04-17T20:42:41.947Z,22.77
2023-04-17T20:44:43.298Z,22.40
2023-04-17T20:46:44.691Z,22.16
2023-04-17T20:48:46.335Z,22.00
2023-04-17T20:50:47.685Z,21.90
2023-04-17T20:52:49.031Z,21.77
2023-04-17T20:54:50.352Z,20.10
2023-04-17T20:56:51.668Z,19.24
2023-04-17T20:58:53.062Z,20.16
2023-04-17T21:01:01.205Z,20.84
2023-04-17T21:03:03.154Z,21.21
2023-04-17T21:05:04.518Z,21.41
2023-04-17T21:07:05.856Z,21.58
2023-04-17T21:09:14.801Z,21.66
2023-04-17T21:11:16.090Z,21.78
2023-04-17T21:13:17.399Z,21.88
2023-04-17T21:15:18.810Z,21.98
2023-04-17T21:17:20.146Z,22.04
2023-04-17T21:19:24.128Z,22.09
2023-04-17T21:21:26.209Z,22.13
2023-04-17T21:23:27.564Z,22.18
2023-04-17T21:25:28.902Z,22.22
2023-04-17T21:27:30.696Z,22.24
2023-04-17T21:29:32.008Z,22.27
2023-04-17T21:31:33.365Z,22.25
2023-04-17T21:33:34.673Z,22.24
2023-04-17T21:35:36.615Z,22.21
2023-04-17T21:37:37.919Z,22.15
2023-04-17T21:39:39.223Z,22.13
2023-04-17T21:41:40.557Z,22.09
2023-04-17T21:43:41.857Z,22.06
2023-04-17T21:45:43.173Z,22.03
2023-04-17T21:47:44.572Z,21.98
2023-04-17T21:49:45.922Z,21.96
2023-04-17T21:51:47.224Z,21.91
2023-04-17T21:53:48.579Z,21.88
2023-04-17T21:55:49.909Z,21.84
2023-04-17T21:57:51.200Z,21.79
2023-04-17T21:59:52.491Z,21.77
2023-04-17T22:01:53.840Z,21.74
2023-04-17T22:03:55.272Z,21.72
2023-04-17T22:05:56.942Z,21.70
2023-04-17T22:07:58.246Z,21.70
2023-04-17T22:10:01.664Z,21.66
2023-04-17T22:12:02.964Z,21.68
2023-04-17T22:14:04.304Z,21.67
2023-04-17T22:16:05.603Z,21.65
2023-04-17T22:18:07.083Z,21.62
2023-04-17T22:20:08.445Z,21.59
2023-04-17T22:22:09.892Z,21.58
2023-04-17T22:24:11.575Z,21.57
2023-04-17T22:26:13.111Z,21.54
2023-04-17T22:28:14.413Z,21.54
2023-04-17T22:30:15.892Z,21.52
2023-04-17T22:32:17.195Z,21.50
2023-04-17T22:34:18.506Z,21.52
2023-04-17T22:36:19.878Z,21.49
2023-04-17T22:38:21.312Z,21.48
2023-04-17T22:40:22.720Z,21.47
2023-04-17T22:42:24.016Z,21.45
2023-04-17T22:44:25.336Z,21.44
2023-04-17T22:46:26.718Z,21.48
2023-04-17T22:48:28.419Z,21.51
2023-04-17T22:50:30.575Z,21.53
2023-04-17T22:52:31.923Z,21.52
2023-04-17T22:54:33.362Z,21.52
2023-04-17T22:56:34.695Z,21.57
2023-04-17T22:58:36.461Z,21.58
2023-04-17T23:00:37.795Z,21.61
2023-04-17T23:02:39.283Z,21.64
2023-04-17T23:04:40.981Z,21.65
2023-04-17T23:06:42.316Z,21.64
2023-04-17T23:08:43.652Z,21.66
2023-04-17T23:10:45.286Z,21.69
2023-04-17T23:12:46.634Z,21.70
2023-04-17T23:14:48.481Z,21.71
2023-04-17T23:16:49.799Z,21.72
2023-04-17T23:18:51.245Z,21.73
2023-04-17T23:20:52.572Z,21.75
2023-04-17T23:22:54.089Z,21.76
2023-04-17T23:24:55.391Z,21.76
2023-04-17T23:26:57.582Z,21.75
2023-04-17T23:28:58.884Z,21.74
2023-04-17T23:31:00.220Z,21.73
2023-04-17T23:33:02.295Z,21.72
2023-04-17T23:35:03.668Z,21.71
2023-04-17T23:37:04.981Z,21.71
2023-04-17T23:39:06.318Z,21.71
2023-04-17T23:41:07.620Z,21.68
2023-04-17T23:43:08.910Z,21.68
2023-04-17T23:45:10.536Z,21.67
2023-04-17T23:47:11.889Z,21.66
2023-04-17T23:49:13.184Z,21.66
2023-04-17T23:51:14.522Z,21.65
2023-04-17T23:53:15.933Z,21.65
2023-04-17T23:55:17.240Z,21.63
2023-04-17T23:57:18.561Z,21.61
2023-04-17T23:59:19.894Z,21.60
